Time;durP1;ratioP1;P1;durP2;ratioP2;P2;SDS_P1;SDS_P2;PMS_P1;PMS_P2;Temp;Humidity;BMP_temperature;BMP_pressure;BME280_temperature;BME280_humidity;BME280_pressure;Samples;Min_cycle;Max_cycle;Signal;HPM_P1;HPM_P2
2021/09/04 00:02:23;;;;;;;32.10;20.38;;;14.10;99.90;;;;;;5015171;28;20022;-79
2021/09/04 00:04:49;;;;;;;31.58;19.45;;;14.00;99.90;;;;;;5013844;28;20029;-80
2021/09/04 00:07:15;;;;;;;28.75;16.98;;;14.00;99.90;;;;;;5014582;28;20030;-78
2021/09/04 00:09:40;;;;;;;33.45;19.35;;;13.90;99.90;;;;;;5013557;28;20377;-79
2021/09/04 00:12:07;;;;;;;28.08;17.65;;;13.90;99.90;;;;;;5014543;28;20453;-79
2021/09/04 00:14:33;;;;;;;32.25;19.35;;;13.90;99.90;;;;;;5015050;28;20425;-79
2021/09/04 00:16:58;;;;;;;33.47;18.85;;;13.90;99.90;;;;;;5015223;28;20051;-79
2021/09/04 00:19:24;;;;;;;25.98;18.17;;;13.90;99.90;;;;;;5015763;28;20474;-79
2021/09/04 00:21:49;;;;;;;32.67;19.02;;;13.90;99.90;;;;;;5013992;28;20069;-78
2021/09/04 00:24:15;;;;;;;28.88;17.73;;;13.90;99.90;;;;;;5013780;28;20045;-79
2021/09/04 00:26:41;;;;;;;28.90;18.10;;;13.90;99.90;;;;;;5013599;28;20033;-79
2021/09/04 00:29:06;;;;;;;27.23;18.17;;;13.90;99.90;;;;;;5014394;28;20487;-79
2021/09/04 00:31:32;;;;;;;30.40;17.65;;;13.80;99.90;;;;;;5013199;28;20125;-79
2021/09/04 00:33:57;;;;;;;29.35;16.80;;;13.80;99.90;;;;;;5013907;28;20117;-81
2021/09/04 00:36:23;;;;;;;25.00;17.83;;;13.80;99.90;;;;;;5014051;28;20553;-79
2021/09/04 00:38:48;;;;;;;24.00;17.55;;;13.80;99.90;;;;;;5013001;28;20060;-79
2021/09/04 00:41:21;;;;;;;30.27;18.42;;;13.80;99.90;;;;;;5013806;28;20021;-79
2021/09/04 00:43:49;;;;;;;34.25;17.58;;;13.80;99.90;;;;;;5013311;28;20057;-81
2021/09/04 00:46:15;;;;;;;28.30;17.90;;;13.70;99.90;;;;;;5013315;28;20021;-79
2021/09/04 00:48:41;;;;;;;28.52;18.02;;;13.80;99.90;;;;;;5016565;28;20033;-77
2021/09/04 00:51:07;;;;;;;33.15;18.13;;;13.70;99.90;;;;;;5013634;28;20036;-80
2021/09/04 00:53:34;;;;;;;28.95;17.58;;;13.70;99.90;;;;;;5012918;28;20014;-78
2021/09/04 00:56:00;;;;;;;35.17;18.50;;;13.70;99.90;;;;;;5013566;28;20049;-79
2021/09/04 00:58:25;;;;;;;33.13;17.33;;;13.70;99.90;;;;;;5013749;28;20022;-79
2021/09/04 01:00:52;;;;;;;26.50;17.67;;;13.70;99.90;;;;;;5012943;28;20389;-80
2021/09/04 01:03:19;;;;;;;33.78;17.38;;;13.60;99.90;;;;;;5013498;28;20026;-79
2021/09/04 01:05:49;;;;;;;28.50;17.42;;;13.60;99.90;;;;;;5013092;28;20049;-80
2021/09/04 01:08:15;;;;;;;24.70;17.45;;;13.60;99.90;;;;;;5013617;28;20026;-80
2021/09/04 01:10:41;;;;;;;25.35;16.42;;;13.60;99.90;;;;;;5013058;28;20076;-80
2021/09/04 01:13:06;;;;;;;33.95;18.45;;;13.50;99.90;;;;;;5012907;28;20133;-79
2021/09/04 01:15:32;;;;;;;30.10;17.08;;;13.50;99.90;;;;;;5013003;28;20022;-78
2021/09/04 01:18:01;;;;;;;30.15;17.92;;;13.50;99.90;;;;;;5013120;28;20025;-79
2021/09/04 01:20:27;;;;;;;26.98;17.02;;;13.50;99.90;;;;;;5012056;28;20032;-79
2021/09/04 01:22:52;;;;;;;27.33;16.98;;;13.50;99.90;;;;;;5013217;28;20022;-79
2021/09/04 01:25:24;;;;;;;29.92;17.42;;;13.40;99.90;;;;;;5012929;28;20592;-79
2021/09/04 01:27:50;;;;;;;28.55;16.30;;;13.40;99.90;;;;;;5012096;28;20513;-79
2021/09/04 01:30:17;;;;;;;40.53;18.83;;;13.30;99.90;;;;;;5012555;28;20030;-79
2021/09/04 01:32:43;;;;;;;29.50;17.60;;;13.40;99.90;;;;;;5012781;28;20048;-79
2021/09/04 01:35:11;;;;;;;32.45;17.38;;;13.30;99.90;;;;;;5012312;28;20029;-79
2021/09/04 01:37:37;;;;;;;28.67;17.73;;;13.30;99.90;;;;;;5012357;28;20105;-79
2021/09/04 01:40:08;;;;;;;31.45;16.58;;;13.30;99.90;;;;;;5012982;28;20022;-79
2021/09/04 01:42:34;;;;;;;36.13;17.52;;;13.20;99.90;;;;;;5011949;28;20030;-78
2021/09/04 01:44:59;;;;;;;33.28;17.35;;;13.20;99.90;;;;;;5012951;28;20029;-79
2021/09/04 01:47:26;;;;;;;36.25;18.40;;;13.10;99.90;;;;;;5012629;28;20041;-79
2021/09/04 01:49:53;;;;;;;27.83;17.33;;;13.20;99.90;;;;;;5011902;28;20124;-81
2021/09/04 01:52:19;;;;;;;25.73;16.50;;;13.10;99.90;;;;;;5012387;28;20486;-79
2021/09/04 01:54:45;;;;;;;26.80;17.17;;;13.10;99.90;;;;;;5012110;28;20030;-79
2021/09/04 01:57:10;;;;;;;28.95;16.33;;;13.10;99.90;;;;;;5012051;28;20040;-77
2021/09/04 01:59:37;;;;;;;28.90;17.83;;;13.10;99.90;;;;;;5012377;28;20053;-80
2021/09/04 02:02:03;;;;;;;25.83;15.27;;;13.10;99.90;;;;;;5011893;28;20022;-78
2021/09/04 02:04:28;;;;;;;32.15;16.92;;;13.10;99.90;;;;;;5011689;28;20375;-81
2021/09/04 02:06:54;;;;;;;30.13;15.88;;;13.10;99.90;;;;;;5012029;28;20077;-78
2021/09/04 02:09:19;;;;;;;29.60;14.80;;;13.00;99.90;;;;;;5011695;28;20021;-79
2021/09/04 02:11:45;;;;;;;24.30;15.50;;;13.00;99.90;;;;;;5012206;28;20033;-79
2021/09/04 02:14:10;;;;;;;30.40;15.30;;;13.00;99.90;;;;;;5012430;28;20025;-78
2021/09/04 02:16:36;;;;;;;28.38;15.75;;;13.00;99.90;;;;;;5011406;28;20028;-80
2021/09/04 02:19:01;;;;;;;25.23;14.52;;;13.00;99.90;;;;;;5012454;28;20075;-79
2021/09/04 02:21:27;;;;;;;28.77;14.60;;;12.90;99.90;;;;;;5011865;28;20048;-79
2021/09/04 02:23:53;;;;;;;27.60;15.55;;;12.90;99.90;;;;;;5014371;28;20033;-79
2021/09/04 02:26:18;;;;;;;26.88;15.05;;;12.90;99.90;;;;;;5016399;28;20061;-78
2021/09/04 02:28:44;;;;;;;31.88;15.07;;;13.00;99.90;;;;;;5015931;28;20144;-79
2021/09/04 02:31:09;;;;;;;29.58;15.38;;;12.90;99.90;;;;;;5015749;28;20478;-78
2021/09/04 02:33:35;;;;;;;28.60;15.18;;;12.90;99.90;;;;;;5015948;28;20466;-78
2021/09/04 02:36:00;;;;;;;30.35;14.90;;;12.90;99.90;;;;;;5016163;28;20164;-78
2021/09/04 02:38:26;;;;;;;27.17;14.75;;;12.90;99.90;;;;;;5015598;28;20018;-79
2021/09/04 02:40:51;;;;;;;30.50;14.73;;;12.90;99.90;;;;;;5016231;28;20037;-79
2021/09/04 02:43:17;;;;;;;25.20;14.50;;;12.90;99.90;;;;;;5016142;28;20030;-81
2021/09/04 02:45:42;;;;;;;28.77;15.15;;;12.90;99.90;;;;;;5014655;28;20030;-78
2021/09/04 02:48:08;;;;;;;28.45;15.00;;;12.80;99.90;;;;;;5016105;28;20046;-78
2021/09/04 02:50:34;;;;;;;25.90;14.15;;;12.80;99.90;;;;;;5015352;28;20054;-79
2021/09/04 02:52:59;;;;;;;24.35;13.43;;;12.80;99.90;;;;;;5015452;28;20484;-78
2021/09/04 02:55:25;;;;;;;28.90;14.85;;;12.80;99.90;;;;;;5015778;28;20068;-79
2021/09/04 02:57:51;;;;;;;27.83;14.13;;;12.90;99.90;;;;;;5015461;28;20022;-79
2021/09/04 03:00:16;;;;;;;25.25;15.40;;;12.80;99.90;;;;;;5015276;28;20769;-79
2021/09/04 03:02:45;;;;;;;27.25;14.07;;;12.80;99.90;;;;;;5015485;28;20032;-80
2021/09/04 03:05:11;;;;;;;21.85;13.98;;;12.80;99.90;;;;;;5015731;28;20072;-79
2021/09/04 03:07:36;;;;;;;22.98;13.95;;;12.80;99.90;;;;;;5014722;28;20484;-79
2021/09/04 03:10:02;;;;;;;28.38;14.80;;;12.70;99.90;;;;;;5015727;28;20509;-78
2021/09/04 03:12:28;;;;;;;24.55;14.10;;;12.70;99.90;;;;;;5014428;28;20482;-80
2021/09/04 03:14:53;;;;;;;28.00;14.65;;;12.70;99.90;;;;;;5015454;28;20014;-79
2021/09/04 03:17:19;;;;;;;26.15;15.18;;;12.70;99.90;;;;;;5017669;28;20026;-80
2021/09/04 03:19:44;;;;;;;23.92;13.80;;;12.70;99.90;;;;;;5015069;28;20018;-79
2021/09/04 03:22:13;;;;;;;24.83;14.68;;;12.70;99.90;;;;;;5015594;28;20030;-78
2021/09/04 03:24:39;;;;;;;25.83;14.57;;;12.70;99.90;;;;;;5015166;28;20072;-78
2021/09/04 03:27:06;;;;;;;23.98;14.85;;;12.60;99.90;;;;;;5015337;28;20030;-79
2021/09/04 03:29:31;;;;;;;23.40;14.70;;;12.60;99.90;;;;;;5018152;28;20026;-78
2021/09/04 03:31:57;;;;;;;25.35;14.65;;;12.60;99.90;;;;;;5027205;28;20117;-78
2021/09/04 03:34:22;;;;;;;27.80;16.33;;;12.60;99.90;;;;;;5019052;28;20548;-79
2021/09/04 03:36:48;;;;;;;24.88;14.73;;;12.50;99.90;;;;;;5015675;28;20030;-78
2021/09/04 03:39:14;;;;;;;24.05;14.05;;;12.50;99.90;;;;;;5015902;28;20026;-79
2021/09/04 03:41:39;;;;;;;24.40;14.77;;;12.50;99.90;;;;;;5014404;28;20462;-78
2021/09/04 03:44:04;;;;;;;28.58;15.85;;;12.50;99.90;;;;;;5016057;28;20030;-78
2021/09/04 03:46:30;;;;;;;30.00;16.35;;;12.50;99.90;;;;;;5015919;28;20026;-79
2021/09/04 03:49:00;;;;;;;33.15;17.02;;;12.40;99.90;;;;;;5014305;28;20049;-80
2021/09/04 03:51:26;;;;;;;31.30;17.08;;;12.40;99.90;;;;;;5014850;28;20045;-80
2021/09/04 03:53:52;;;;;;;39.35;17.08;;;12.40;99.90;;;;;;5014588;28;20474;-79
2021/09/04 03:56:17;;;;;;;28.45;16.65;;;12.50;99.90;;;;;;5014188;28;20033;-79
2021/09/04 03:58:43;;;;;;;31.17;16.80;;;12.50;99.90;;;;;;5014400;28;20484;-79
2021/09/04 04:01:08;;;;;;;30.45;17.67;;;12.60;99.90;;;;;;5014806;28;20037;-80
2021/09/04 04:03:34;;;;;;;33.28;17.00;;;12.60;99.90;;;;;;5013717;28;20429;-79
2021/09/04 04:06:00;;;;;;;33.25;18.00;;;12.70;99.90;;;;;;5014434;28;20053;-79
2021/09/04 04:08:25;;;;;;;29.98;16.63;;;12.70;99.90;;;;;;5014777;28;20022;-79
2021/09/04 04:10:51;;;;;;;29.58;18.27;;;12.80;99.90;;;;;;5013507;28;20018;-79
2021/09/04 04:13:16;;;;;;;37.25;18.35;;;12.80;99.90;;;;;;5014396;28;20037;-78
2021/09/04 04:15:42;;;;;;;28.17;16.65;;;12.90;99.90;;;;;;5013213;28;20034;-79
2021/09/04 04:18:07;;;;;;;36.28;16.88;;;12.90;99.90;;;;;;5013999;28;20109;-79
2021/09/04 04:20:33;;;;;;;31.38;16.77;;;12.90;99.90;;;;;;5014019;28;20022;-79
2021/09/04 04:22:58;;;;;;;35.80;18.10;;;12.90;99.90;;;;;;5013617;28;20048;-79
2021/09/04 04:25:24;;;;;;;38.25;18.88;;;12.90;99.90;;;;;;5014270;28;20053;-79
2021/09/04 04:27:49;;;;;;;26.20;16.85;;;12.90;99.90;;;;;;5013806;28;20108;-78
2021/09/04 04:30:15;;;;;;;29.65;16.35;;;12.90;99.90;;;;;;5013067;28;20018;-79
2021/09/04 04:32:41;;;;;;;34.88;16.25;;;12.90;99.90;;;;;;5002864;28;20022;-79
2021/09/04 04:35:07;;;;;;;29.80;16.92;;;13.00;99.90;;;;;;5011141;28;20022;-79
2021/09/04 04:37:32;;;;;;;31.27;17.02;;;13.00;99.90;;;;;;5013060;28;20065;-79
2021/09/04 04:39:58;;;;;;;30.02;15.88;;;13.00;99.90;;;;;;5013953;28;20374;-79
2021/09/04 04:42:23;;;;;;;29.83;17.33;;;13.00;99.90;;;;;;5013787;28;20022;-79
2021/09/04 04:44:49;;;;;;;28.85;17.02;;;13.00;99.90;;;;;;5012721;28;20053;-79
2021/09/04 04:47:23;;;;;;;28.30;15.90;;;13.10;99.90;;;;;;5012815;28;20014;-79
2021/09/04 04:49:49;;;;;;;26.05;15.55;;;13.10;99.90;;;;;;5013267;28;20133;-79
2021/09/04 04:52:14;;;;;;;28.48;16.02;;;13.10;99.90;;;;;;5012579;28;20152;-79
2021/09/04 04:54:40;;;;;;;33.42;16.35;;;13.10;99.90;;;;;;5013274;28;20071;-79
2021/09/04 04:57:07;;;;;;;29.00;16.40;;;13.10;99.90;;;;;;5013438;28;20439;-79
2021/09/04 04:59:32;;;;;;;37.05;17.40;;;13.10;99.90;;;;;;5012556;28;20454;-79
2021/09/04 05:01:58;;;;;;;34.88;17.13;;;13.10;99.90;;;;;;5012838;28;20029;-79
2021/09/04 05:04:23;;;;;;;35.13;18.58;;;13.20;99.90;;;;;;5013407;28;20022;-79
2021/09/04 05:06:49;;;;;;;36.75;17.98;;;13.20;99.90;;;;;;5012325;28;20026;-78
2021/09/04 05:09:14;;;;;;;26.95;16.15;;;13.20;99.90;;;;;;5012958;28;20022;-79
2021/09/04 05:11:40;;;;;;;30.73;15.95;;;13.20;99.90;;;;;;5013290;28;20046;-79
2021/09/04 05:14:05;;;;;;;28.40;15.80;;;13.30;99.90;;;;;;5012808;28;20347;-78
2021/09/04 05:16:31;;;;;;;28.90;15.95;;;13.30;99.90;;;;;;5012382;28;20030;-77
2021/09/04 05:18:56;;;;;;;27.90;16.40;;;13.30;99.90;;;;;;5012604;28;20014;-79
2021/09/04 05:21:22;;;;;;;36.92;17.00;;;13.30;99.90;;;;;;5013151;28;20022;-79
2021/09/04 05:23:47;;;;;;;30.83;16.70;;;13.30;99.90;;;;;;5005290;28;20018;-79
2021/09/04 05:26:13;;;;;;;30.02;16.92;;;13.40;99.90;;;;;;5006644;28;20418;-80
2021/09/04 05:28:39;;;;;;;29.75;16.70;;;13.30;99.90;;;;;;5012859;28;20033;-78
2021/09/04 05:31:05;;;;;;;25.52;15.43;;;13.30;99.90;;;;;;5013286;28;20030;-79
2021/09/04 05:33:30;;;;;;;38.60;17.73;;;13.30;99.90;;;;;;5013298;28;20474;-80
2021/09/04 05:35:56;;;;;;;31.42;16.88;;;13.40;99.90;;;;;;5013718;28;20033;-79
2021/09/04 05:38:22;;;;;;;28.80;16.33;;;13.40;99.90;;;;;;5013123;28;20473;-79
2021/09/04 05:40:48;;;;;;;28.60;16.85;;;13.40;99.90;;;;;;5012499;28;20041;-79
2021/09/04 05:43:13;;;;;;;28.25;16.90;;;13.40;99.90;;;;;;4998874;28;20401;-79
2021/09/04 05:45:39;;;;;;;30.67;16.63;;;13.40;99.90;;;;;;4996857;28;20042;-80
2021/09/04 05:48:05;;;;;;;31.83;16.75;;;13.40;99.90;;;;;;4994537;28;20038;-79
2021/09/04 05:50:30;;;;;;;32.53;16.25;;;13.50;99.90;;;;;;4996694;28;20050;-80
2021/09/04 05:52:56;;;;;;;31.52;16.55;;;13.50;99.90;;;;;;4998448;28;20084;-79
2021/09/04 05:55:21;;;;;;;28.88;16.77;;;13.50;99.90;;;;;;5004220;28;20077;-79
2021/09/04 05:57:47;;;;;;;28.50;16.77;;;13.50;99.90;;;;;;5002757;28;20050;-79
2021/09/04 06:00:13;;;;;;;38.65;16.90;;;13.50;99.90;;;;;;4999481;28;20084;-79
2021/09/04 06:02:40;;;;;;;29.67;15.68;;;13.50;99.90;;;;;;5005293;28;20034;-79
2021/09/04 06:05:06;;;;;;;25.02;16.02;;;13.50;99.90;;;;;;4993369;28;20041;-79
2021/09/04 06:07:32;;;;;;;24.65;15.18;;;13.60;99.90;;;;;;4998435;28;20052;-78
2021/09/04 06:09:57;;;;;;;29.42;16.15;;;13.60;99.90;;;;;;5004660;28;20034;-79
2021/09/04 06:12:23;;;;;;;35.47;17.35;;;13.60;99.90;;;;;;5000783;28;20395;-80
2021/09/04 06:14:48;;;;;;;30.10;17.35;;;13.60;99.90;;;;;;4998011;28;20038;-79
2021/09/04 06:17:17;;;;;;;25.35;15.05;;;13.60;99.90;;;;;;4992157;28;20022;-79
2021/09/04 06:19:44;;;;;;;24.20;15.30;;;13.70;99.90;;;;;;4994370;28;20033;-80
2021/09/04 06:22:10;;;;;;;25.95;15.30;;;13.80;99.90;;;;;;4995042;28;20053;-80
2021/09/04 06:24:35;;;;;;;27.45;15.95;;;13.80;99.90;;;;;;4995148;28;20462;-79
2021/09/04 06:27:01;;;;;;;26.67;15.23;;;13.80;99.90;;;;;;5003637;28;20049;-78
2021/09/04 06:29:30;;;;;;;28.58;16.00;;;13.90;99.90;;;;;;5010281;28;20709;-79
2021/09/04 06:31:55;;;;;;;24.63;14.73;;;13.90;99.90;;;;;;5008672;28;20037;-80
2021/09/04 06:34:21;;;;;;;24.30;15.18;;;13.90;99.90;;;;;;5011150;28;20433;-80
2021/09/04 06:36:47;;;;;;;24.08;15.43;;;14.00;99.90;;;;;;5009784;28;20036;-78
2021/09/04 06:39:12;;;;;;;27.50;14.80;;;14.00;99.90;;;;;;5010165;28;20050;-79
2021/09/04 06:41:38;;;;;;;22.33;14.32;;;13.90;99.90;;;;;;5010643;28;20375;-78
2021/09/04 06:44:03;;;;;;;23.70;15.15;;;14.00;99.90;;;;;;5010337;28;20486;-79
2021/09/04 06:46:32;;;;;;;24.38;14.43;;;14.00;99.90;;;;;;5010792;28;20525;-79
2021/09/04 06:48:59;;;;;;;22.27;14.55;;;14.10;99.90;;;;;;5010802;28;20041;-77
2021/09/04 06:51:25;;;;;;;25.73;15.35;;;14.00;99.90;;;;;;5011270;28;20030;-78
2021/09/04 06:53:51;;;;;;;23.67;14.40;;;14.00;99.90;;;;;;5012661;28;20044;-77
2021/09/04 06:56:16;;;;;;;21.98;14.23;;;14.00;99.90;;;;;;5009269;28;20029;-79
2021/09/04 06:58:42;;;;;;;26.13;14.45;;;14.10;99.90;;;;;;5008143;28;20470;-82
2021/09/04 07:01:07;;;;;;;21.67;14.25;;;14.10;99.90;;;;;;5007970;28;20096;-82
2021/09/04 07:03:33;;;;;;;21.17;13.98;;;14.20;99.90;;;;;;5011502;28;20056;-80
2021/09/04 07:05:58;;;;;;;24.73;14.90;;;14.20;99.90;;;;;;5005488;28;20493;-80
2021/09/04 07:08:24;;;;;;;27.60;15.32;;;14.20;99.90;;;;;;5011943;28;20386;-78
2021/09/04 07:10:50;;;;;;;25.63;13.93;;;14.30;99.90;;;;;;5014908;28;20034;-80
2021/09/04 07:13:15;;;;;;;23.60;14.77;;;14.30;99.90;;;;;;5015529;28;20104;-80
2021/09/04 07:15:41;;;;;;;27.65;15.10;;;14.40;99.90;;;;;;5015004;28;20030;-75
2021/09/04 07:18:06;;;;;;;24.25;15.55;;;14.40;99.90;;;;;;5015382;28;20530;-79
2021/09/04 07:20:32;;;;;;;21.10;14.70;;;14.50;99.90;;;;;;5015181;28;20022;-80
2021/09/04 07:22:58;;;;;;;24.52;16.02;;;14.60;99.90;;;;;;5016020;28;20025;-78
2021/09/04 07:25:23;;;;;;;31.35;17.40;;;14.60;99.90;;;;;;5016210;28;20096;-80
2021/09/04 07:27:49;;;;;;;31.55;16.77;;;14.50;99.90;;;;;;5016216;28;20076;-80
2021/09/04 07:30:16;;;;;;;33.47;16.27;;;14.50;99.90;;;;;;5016367;28;20021;-78
2021/09/04 07:32:42;;;;;;;30.90;16.65;;;14.50;99.90;;;;;;5015240;28;20126;-79
2021/09/04 07:35:08;;;;;;;33.13;15.98;;;14.50;99.90;;;;;;5020090;28;20025;-81
2021/09/04 07:37:34;;;;;;;29.58;16.80;;;14.50;99.90;;;;;;5016200;28;20030;-81
2021/09/04 07:39:59;;;;;;;23.45;15.93;;;14.50;99.90;;;;;;5016258;28;20128;-80
2021/09/04 07:42:25;;;;;;;27.80;16.20;;;14.60;99.90;;;;;;5015329;28;20030;-83
2021/09/04 07:44:50;;;;;;;30.27;15.93;;;14.70;99.90;;;;;;5015426;28;20029;-79
2021/09/04 07:47:16;;;;;;;25.52;16.52;;;14.70;99.90;;;;;;5014807;28;20072;-77
2021/09/04 07:49:42;;;;;;;22.98;15.10;;;14.70;99.90;;;;;;5014530;28;20053;-80
2021/09/04 07:52:08;;;;;;;31.63;16.42;;;14.80;99.90;;;;;;5014952;28;20030;-79
2021/09/04 07:54:33;;;;;;;23.90;15.90;;;14.90;99.90;;;;;;5013658;28;20378;-78
2021/09/04 07:56:59;;;;;;;25.60;16.88;;;14.90;99.90;;;;;;5014439;28;20394;-79
2021/09/04 07:59:24;;;;;;;33.97;16.83;;;14.90;99.90;;;;;;5014696;28;20054;-79
2021/09/04 08:01:50;;;;;;;26.35;15.50;;;15.00;99.90;;;;;;5013974;28;20105;-79
2021/09/04 08:04:15;;;;;;;23.98;15.43;;;15.00;99.90;;;;;;5014401;28;20068;-80
2021/09/04 08:06:41;;;;;;;32.70;16.52;;;15.10;99.90;;;;;;5014187;28;20071;-81
2021/09/04 08:09:07;;;;;;;26.00;17.20;;;15.20;99.90;;;;;;5013723;28;20113;-82
2021/09/04 08:11:33;;;;;;;21.98;16.30;;;15.30;99.90;;;;;;5012714;28;20034;-80
2021/09/04 08:13:58;;;;;;;24.60;15.63;;;15.30;99.90;;;;;;5021380;28;20022;-78
2021/09/04 08:16:24;;;;;;;25.88;15.70;;;15.40;99.90;;;;;;5008545;28;21267;-78
2021/09/04 08:18:49;;;;;;;28.38;17.13;;;15.40;99.90;;;;;;5000779;28;20020;-77
2021/09/04 08:21:15;;;;;;;29.13;16.15;;;15.40;99.90;;;;;;5005131;28;20030;-78
2021/09/04 08:23:41;;;;;;;26.38;16.67;;;15.40;99.90;;;;;;5008735;28;20113;-78
2021/09/04 08:26:06;;;;;;;25.42;15.60;;;15.50;99.90;;;;;;5007457;28;20061;-80
2021/09/04 08:28:32;;;;;;;25.25;16.42;;;15.40;99.90;;;;;;5006245;28;20018;-80
2021/09/04 08:30:57;;;;;;;23.52;15.88;;;15.60;99.90;;;;;;5004955;28;20030;-79
2021/09/04 08:33:23;;;;;;;28.63;16.63;;;15.60;99.90;;;;;;5001710;28;20435;-79
2021/09/04 08:35:48;;;;;;;24.33;15.90;;;15.70;99.90;;;;;;5011593;28;20083;-78
2021/09/04 08:38:14;;;;;;;25.13;17.50;;;15.70;99.90;;;;;;5012034;28;20030;-79
2021/09/04 08:40:42;;;;;;;24.67;16.73;;;15.70;99.90;;;;;;5012095;28;20022;-78
2021/09/04 08:43:08;;;;;;;25.67;15.75;;;15.70;99.90;;;;;;5012078;28;20034;-78
2021/09/04 08:45:33;;;;;;;22.58;15.38;;;15.80;99.90;;;;;;5012344;28;20117;-79
2021/09/04 08:48:00;;;;;;;23.85;16.10;;;15.80;99.90;;;;;;5012872;28;20038;-79
2021/09/04 08:50:26;;;;;;;31.33;16.40;;;15.90;99.90;;;;;;5012671;28;20410;-79
2021/09/04 08:52:55;;;;;;;25.20;16.30;;;15.90;99.90;;;;;;5013598;28;20493;-79
2021/09/04 08:55:22;;;;;;;31.17;16.58;;;15.70;99.90;;;;;;5013540;28;20125;-79
2021/09/04 08:57:49;;;;;;;28.02;16.83;;;15.70;99.90;;;;;;5012743;28;20026;-79
2021/09/04 09:00:31;;;;;;;26.15;15.75;;;15.50;99.90;;;;;;5013503;28;20391;-77
2021/09/04 09:02:58;;;;;;;27.55;17.38;;;15.50;99.90;;;;;;5012315;28;20025;-79
2021/09/04 09:05:24;;;;;;;29.38;16.80;;;15.60;99.90;;;;;;5012748;28;20025;-80
2021/09/04 09:07:49;;;;;;;28.88;17.20;;;15.60;99.90;;;;;;5013346;28;20029;-78
2021/09/04 09:10:21;;;;;;;26.65;16.55;;;15.60;99.90;;;;;;5013668;28;20029;-79
2021/09/04 09:12:46;;;;;;;25.02;16.73;;;15.60;99.90;;;;;;5012158;28;20453;-79
2021/09/04 09:15:19;;;;;;;24.13;16.23;;;15.70;99.90;;;;;;5013637;28;20026;-80
2021/09/04 09:17:57;;;;;;;25.42;15.88;;;15.70;99.90;;;;;;5012942;28;20191;-80
2021/09/04 09:20:24;;;;;;;23.88;15.55;;;15.80;99.90;;;;;;5013187;28;20053;-79
2021/09/04 09:22:50;;;;;;;25.83;16.08;;;15.90;99.90;;;;;;5013318;28;20064;-79
2021/09/04 09:25:18;;;;;;;23.33;15.75;;;16.10;99.90;;;;;;5012997;28;20057;-80
2021/09/04 09:28:00;;;;;;;22.02;15.63;;;16.10;99.90;;;;;;5013055;28;20025;-80
2021/09/04 09:30:38;;;;;;;23.65;15.45;;;16.20;99.90;;;;;;4999687;28;20116;-79
2021/09/04 09:33:05;;;;;;;26.08;15.57;;;16.30;99.90;;;;;;5012067;28;20029;-79
2021/09/04 09:35:36;;;;;;;21.40;15.32;;;16.40;99.90;;;;;;5012721;28;20351;-80
2021/09/04 09:38:04;;;;;;;28.98;16.05;;;16.50;99.90;;;;;;5019325;28;20032;-79
2021/09/04 09:40:30;;;;;;;26.23;16.30;;;16.50;99.90;;;;;;5012179;28;20018;-80
2021/09/04 09:42:56;;;;;;;27.13;16.02;;;16.50;99.90;;;;;;5013028;28;20022;-80
2021/09/04 09:45:47;;;;;;;23.83;14.63;;;16.40;99.90;;;;;;5011386;28;20022;-77
2021/09/04 09:48:19;;;;;;;25.95;16.00;;;16.50;99.90;;;;;;5012237;28;20106;-80
2021/09/04 09:50:46;;;;;;;25.00;15.55;;;16.50;99.90;;;;;;5012155;28;20054;-80
2021/09/04 09:53:12;;;;;;;17.80;15.18;;;16.60;99.90;;;;;;5012327;28;20022;-78
2021/09/04 09:55:41;;;;;;;23.23;15.40;;;16.80;99.90;;;;;;5012109;28;20432;-79
2021/09/04 09:58:08;;;;;;;34.95;14.73;;;17.10;99.90;;;;;;5013032;28;20079;-80
2021/09/04 10:00:38;;;;;;;22.63;13.95;;;17.10;99.90;;;;;;5013417;28;20038;-78
2021/09/04 10:03:06;;;;;;;24.77;14.45;;;17.40;99.90;;;;;;5014842;28;20105;-78
2021/09/04 10:05:33;;;;;;;23.20;15.20;;;17.50;99.90;;;;;;5012354;28;20124;-80
2021/09/04 10:07:59;;;;;;;18.58;14.43;;;17.60;99.90;;;;;;5011893;28;20077;-78
2021/09/04 10:10:27;;;;;;;19.52;14.57;;;17.60;99.90;;;;;;5012413;28;20033;-78
2021/09/04 10:12:53;;;;;;;21.23;14.05;;;17.50;99.90;;;;;;5012802;28;20025;-78
2021/09/04 10:15:21;;;;;;;23.17;14.88;;;17.60;99.90;;;;;;5011902;28;20033;-79
2021/09/04 10:17:51;;;;;;;23.45;15.20;;;17.70;99.90;;;;;;5012170;28;20042;-79
2021/09/04 10:20:17;;;;;;;22.52;14.13;;;17.60;99.90;;;;;;5012829;28;20037;-79
2021/09/04 10:22:44;;;;;;;26.70;14.55;;;17.60;99.90;;;;;;5012823;28;20425;-80
2021/09/04 10:25:18;;;;;;;25.42;15.45;;;17.60;99.90;;;;;;5012549;28;20040;-79
2021/09/04 10:27:46;;;;;;;21.42;14.98;;;17.60;99.90;;;;;;5012560;28;20402;-78
2021/09/04 10:30:23;;;;;;;22.83;14.77;;;17.60;99.90;;;;;;5011427;28;20068;-79
2021/09/04 10:33:18;;;;;;;17.70;14.52;;;17.50;99.90;;;;;;5012284;28;20057;-79
2021/09/04 10:35:57;;;;;;;19.65;13.55;;;17.60;99.90;;;;;;5010358;28;20841;-79
2021/09/04 10:38:37;;;;;;;21.08;14.57;;;17.60;99.90;;;;;;5012872;28;20470;-78
2021/09/04 10:41:16;;;;;;;24.42;14.60;;;17.60;99.90;;;;;;5012623;28;20034;-80
2021/09/04 10:43:44;;;;;;;22.67;15.73;;;17.60;99.90;;;;;;5012233;28;20026;-80
2021/09/04 10:46:12;;;;;;;20.50;14.30;;;17.60;99.90;;;;;;5016537;28;20557;-79
2021/09/04 10:48:38;;;;;;;20.50;14.50;;;17.60;99.90;;;;;;5015997;28;20030;-79
2021/09/04 10:51:09;;;;;;;22.27;14.52;;;17.70;99.90;;;;;;5015731;28;20092;-79
2021/09/04 10:53:45;;;;;;;25.13;14.80;;;18.00;99.90;;;;;;5018233;28;20029;-79
2021/09/04 10:56:21;;;;;;;22.48;14.50;;;18.10;99.90;;;;;;5016104;28;20084;-79
2021/09/04 10:58:47;;;;;;;18.70;14.00;;;18.20;99.90;;;;;;5014808;28;20437;-79
2021/09/04 11:01:17;;;;;;;20.83;14.85;;;18.20;99.90;;;;;;5016199;28;20026;-79
2021/09/04 11:03:43;;;;;;;;;;;18.30;99.90;;;;;;5019367;28;20032;-79
2021/09/04 11:06:19;;;;;;;20.08;13.85;;;18.40;99.90;;;;;;5016019;28;19910;-80
2021/09/04 11:08:45;;;;;;;22.00;14.25;;;18.40;99.90;;;;;;5015623;28;20491;-78
2021/09/04 11:11:19;;;;;;;26.30;14.23;;;18.50;99.90;;;;;;5014906;28;20095;-78
2021/09/04 11:13:46;;;;;;;18.02;13.43;;;18.60;99.90;;;;;;5015519;28;20034;-80
2021/09/04 11:16:27;;;;;;;22.48;14.98;;;18.60;99.90;;;;;;5015729;28;20104;-79
2021/09/04 11:18:54;;;;;;;19.50;14.07;;;18.70;99.90;;;;;;5014724;28;20064;-78
2021/09/04 11:21:20;;;;;;;20.73;14.27;;;18.70;99.90;;;;;;5015609;28;20484;-79
2021/09/04 11:23:46;;;;;;;22.73;13.77;;;18.80;99.90;;;;;;5015448;28;20030;-78
2021/09/04 11:26:12;;;;;;;20.20;14.05;;;18.80;99.90;;;;;;5014761;28;20030;-78
2021/09/04 11:28:37;;;;;;;19.88;13.70;;;18.90;99.90;;;;;;5014849;28;20022;-80
2021/09/04 11:31:04;;;;;;;21.38;13.73;;;19.00;99.90;;;;;;5015456;28;20038;-80
2021/09/04 11:33:30;;;;;;;20.65;14.15;;;19.00;99.90;;;;;;5014072;28;20029;-80
2021/09/04 11:35:56;;;;;;;19.33;14.07;;;19.00;99.90;;;;;;5015430;28;20026;-79
2021/09/04 11:38:23;;;;;;;21.58;13.90;;;19.10;99.90;;;;;;5015185;28;20540;-77
2021/09/04 11:40:50;;;;;;;19.55;13.43;;;19.20;99.90;;;;;;5014081;28;20037;-74
2021/09/04 11:43:18;;;;;;;19.02;14.35;;;19.30;99.90;;;;;;5014922;28;20049;-77
2021/09/04 11:45:44;;;;;;;21.58;13.82;;;19.30;99.90;;;;;;5014290;28;20394;-77
2021/09/04 11:48:12;;;;;;;19.50;13.23;;;19.40;99.90;;;;;;5014611;28;20025;-77
2021/09/04 11:50:39;;;;;;;18.98;14.90;;;19.50;99.90;;;;;;5014208;28;20107;-77
2021/09/04 11:53:13;;;;;;;20.42;13.95;;;19.50;99.90;;;;;;5014731;28;20156;-78
2021/09/04 11:55:40;;;;;;;20.58;14.25;;;19.60;99.90;;;;;;5013220;28;20026;-77
2021/09/04 11:58:12;;;;;;;20.42;14.13;;;19.60;99.90;;;;;;5014739;28;20343;-77
2021/09/04 12:00:39;;;;;;;22.65;13.57;;;19.60;99.90;;;;;;5013582;28;20033;-77
2021/09/04 12:03:07;;;;;;;16.88;13.35;;;19.70;99.90;;;;;;5014782;28;20030;-77
2021/09/04 12:05:38;;;;;;;19.98;12.57;;;19.80;99.90;;;;;;5014256;28;20115;-77
2021/09/04 12:08:15;;;;;;;15.70;12.95;;;19.90;99.90;;;;;;5014081;28;20098;-76
2021/09/04 12:10:43;;;;;;;23.63;13.40;;;20.00;99.90;;;;;;5014032;28;20026;-77
2021/09/04 12:13:29;;;;;;;19.63;13.25;;;19.90;99.90;;;;;;5014467;28;20030;-76
2021/09/04 12:15:57;;;;;;;16.38;12.93;;;20.10;99.90;;;;;;5013745;28;20390;-77
2021/09/04 12:18:32;;;;;;;19.25;13.43;;;20.20;99.90;;;;;;5014363;28;20032;-76
2021/09/04 12:21:17;;;;;;;17.92;13.10;;;20.20;99.90;;;;;;5013720;28;20538;-76
2021/09/04 12:23:48;;;;;;;20.63;13.65;;;20.30;99.90;;;;;;5014384;28;20026;-77
2021/09/04 12:26:14;;;;;;;20.40;14.50;;;20.30;99.90;;;;;;5014415;28;20030;-76
2021/09/04 12:28:39;;;;;;;19.00;13.18;;;20.30;99.90;;;;;;5013369;28;20037;-76